createdAt,value
2019-03-22T00:00:27.983Z,73.55
2019-03-22T00:02:55.229Z,72.87
2019-03-22T00:05:22.543Z,69.95
2019-03-22T00:07:49.805Z,60.43
2019-03-22T00:10:17.146Z,63.48
2019-03-22T00:12:44.355Z,64.15
2019-03-22T00:15:11.646Z,66.37
2019-03-22T00:17:38.760Z,59.73
2019-03-22T00:20:06.131Z,60.48
2019-03-22T00:22:33.452Z,61.02
2019-03-22T00:25:00.661Z,63.65
2019-03-22T00:27:27.887Z,65.95
2019-03-22T00:29:55.104Z,74.58
2019-03-22T00:32:22.438Z,70.25
2019-03-22T00:34:49.762Z,71.65
2019-03-22T00:37:17.058Z,63.17
2019-03-22T00:39:44.408Z,64.70
2019-03-22T00:42:11.730Z,61.83
2019-03-22T00:44:39.071Z,62.33
2019-03-22T00:47:06.378Z,61.33
2019-03-22T00:49:33.572Z,60.90
2019-03-22T00:52:00.796Z,63.30
2019-03-22T00:54:27.972Z,64.45
2019-03-22T00:56:55.319Z,62.75
2019-03-22T00:59:22.633Z,68.05
2019-03-22T01:01:50.014Z,70.45
2019-03-22T01:04:17.211Z,59.15
2019-03-22T01:06:44.430Z,51.30
2019-03-22T01:09:11.730Z,50.12
2019-03-22T01:11:39.103Z,59.10
2019-03-22T01:14:06.411Z,60.75
2019-03-22T01:16:33.920Z,62.73
2019-03-22T01:19:01.228Z,62.93
2019-03-22T01:21:28.542Z,72.17
2019-03-22T01:23:56.144Z,70.90
2019-03-22T01:26:23.462Z,96.00
2019-03-22T01:28:50.758Z,91.80
2019-03-22T01:31:18.068Z,97.02
2019-03-22T01:33:45.610Z,88.07
2019-03-22T01:36:13.916Z,82.08
2019-03-22T01:38:41.461Z,79.12
2019-03-22T01:41:08.793Z,83.47
2019-03-22T01:43:36.109Z,80.42
2019-03-22T01:46:03.436Z,104.17
2019-03-22T01:48:30.763Z,83.17
2019-03-22T01:50:57.980Z,75.47
2019-03-22T01:53:25.325Z,57.98
2019-03-22T01:55:52.629Z,54.80
2019-03-22T01:58:20.004Z,50.25
2019-03-22T02:00:47.407Z,50.60
2019-03-22T02:03:14.726Z,51.00
2019-03-22T02:05:41.923Z,55.95
2019-03-22T02:08:09.144Z,56.60
2019-03-22T02:10:36.496Z,55.92
2019-03-22T02:13:03.876Z,58.55
2019-03-22T02:15:31.190Z,59.50
2019-03-22T02:17:58.533Z,63.98
2019-03-22T02:20:26.002Z,71.53
2019-03-22T02:22:53.334Z,90.57
2019-03-22T02:25:26.787Z,89.55
2019-03-22T02:28:03.649Z,93.25
2019-03-22T02:30:23.266Z,89.35
2019-03-22T02:32:50.496Z,82.27
2019-03-22T02:35:28.252Z,84.65
2019-03-22T02:37:47.052Z,89.07
2019-03-22T02:40:14.775Z,98.60
2019-03-22T02:42:42.098Z,105.15
2019-03-22T02:45:09.820Z,113.03
2019-03-22T02:47:37.148Z,104.32
2019-03-22T02:50:17.182Z,102.70
2019-03-22T02:52:34.476Z,96.50
2019-03-22T02:55:01.780Z,116.97
2019-03-22T02:57:28.902Z,105.92
2019-03-22T02:59:56.131Z,122.72
2019-03-22T03:02:23.434Z,106.92
2019-03-22T03:04:50.761Z,100.35
2019-03-22T03:07:18.064Z,93.50
2019-03-22T03:09:45.300Z,92.15
2019-03-22T03:12:12.530Z,84.35
2019-03-22T03:14:39.740Z,77.17
2019-03-22T03:17:06.984Z,81.02
2019-03-22T03:19:34.314Z,79.37
2019-03-22T03:22:01.537Z,81.82
2019-03-22T03:24:28.922Z,86.40
2019-03-22T03:26:56.231Z,89.05
2019-03-22T03:29:23.600Z,93.50
2019-03-22T03:31:50.916Z,86.75
2019-03-22T03:34:18.155Z,87.20
2019-03-22T03:36:45.467Z,81.32
2019-03-22T03:39:12.808Z,86.63
2019-03-22T03:41:40.103Z,81.87
2019-03-22T03:44:07.435Z,82.33
2019-03-22T03:46:34.665Z,71.62
2019-03-22T03:49:02.313Z,68.45
2019-03-22T03:51:29.537Z,75.42
2019-03-22T03:53:56.761Z,75.37
2019-03-22T03:56:23.876Z,76.95
2019-03-22T03:58:52.929Z,83.72
2019-03-22T04:01:20.431Z,84.87
2019-03-22T04:03:47.765Z,85.10
2019-03-22T04:06:15.076Z,88.47
2019-03-22T04:08:42.402Z,84.17
2019-03-22T04:11:09.632Z,111.75
2019-03-22T04:13:36.864Z,121.00
2019-03-22T04:16:04.075Z,133.47
2019-03-22T04:18:31.304Z,147.10
2019-03-22T04:20:58.432Z,128.10
2019-03-22T04:23:25.732Z,136.28
2019-03-22T04:25:53.070Z,115.35
2019-03-22T04:28:20.267Z,97.55
2019-03-22T04:30:47.956Z,139.37
2019-03-22T04:33:15.061Z,96.20
2019-03-22T04:35:42.202Z,100.30
2019-03-22T04:38:09.408Z,143.35
2019-03-22T04:40:36.663Z,100.02
2019-03-22T04:43:03.967Z,124.47
2019-03-22T04:45:33.197Z,135.43
2019-03-22T04:48:05.454Z,101.67
2019-03-22T04:50:36.603Z,117.55
2019-03-22T04:53:04.826Z,203.65
2019-03-22T04:55:34.212Z,138.35
2019-03-22T04:58:02.686Z,136.52
2019-03-22T05:00:30.831Z,118.82
2019-03-22T05:02:58.633Z,111.12
2019-03-22T05:05:25.958Z,99.52
2019-03-22T05:07:53.381Z,97.80
2019-03-22T05:10:22.652Z,82.65
2019-03-22T05:12:51.566Z,69.75
2019-03-22T05:15:20.311Z,67.20
2019-03-22T05:17:48.028Z,70.70
2019-03-22T05:20:17.163Z,78.52
2019-03-22T05:22:45.368Z,88.95
2019-03-22T05:25:13.412Z,83.00
2019-03-22T05:27:43.775Z,100.62
2019-03-22T05:30:36.395Z,86.22
2019-03-22T05:33:03.702Z,104.72
2019-03-22T05:35:30.921Z,97.40
2019-03-22T05:37:58.128Z,76.45
2019-03-22T05:40:25.351Z,79.60
2019-03-22T05:42:52.608Z,83.35
2019-03-22T05:45:19.818Z,94.25
2019-03-22T05:47:47.018Z,86.75
2019-03-22T05:50:14.141Z,88.15
2019-03-22T05:52:41.448Z,89.10
2019-03-22T05:55:08.766Z,87.78
2019-03-22T05:57:36.134Z,83.90
2019-03-22T06:00:04.620Z,91.80
2019-03-22T06:02:31.843Z,88.25
2019-03-22T06:04:59.210Z,97.42
2019-03-22T06:07:45.809Z,100.30
2019-03-22T06:10:13.209Z,69.70
2019-03-22T06:12:40.524Z,67.65
2019-03-22T06:15:08.946Z,72.97
2019-03-22T06:17:36.265Z,64.77
2019-03-22T06:20:03.809Z,84.40
2019-03-22T06:22:31.131Z,63.13
2019-03-22T06:24:58.361Z,91.40
2019-03-22T06:27:25.643Z,71.82
2019-03-22T06:29:54.379Z,61.60
2019-03-22T06:32:22.058Z,57.35
2019-03-22T06:34:49.348Z,56.33
2019-03-22T06:37:16.579Z,63.10
2019-03-22T06:39:43.796Z,71.95
2019-03-22T06:42:11.128Z,57.00
2019-03-22T06:44:38.414Z,55.52
2019-03-22T06:47:05.723Z,59.40
2019-03-22T06:49:32.928Z,60.23
2019-03-22T06:52:00.240Z,58.92
2019-03-22T06:54:31.731Z,75.05
2019-03-22T06:56:56.707Z,60.00
2019-03-22T06:59:23.915Z,65.75
2019-03-22T07:01:51.529Z,74.47
2019-03-22T07:04:18.737Z,71.12
2019-03-22T07:06:45.962Z,58.08
2019-03-22T07:09:13.284Z,56.73
2019-03-22T07:11:41.846Z,63.63
2019-03-22T07:14:09.303Z,54.80
2019-03-22T07:16:36.558Z,52.88
2019-03-22T07:19:04.352Z,49.80
2019-03-22T07:21:31.580Z,44.85
2019-03-22T07:23:58.869Z,47.58
2019-03-22T07:26:26.181Z,47.20
2019-03-22T07:28:53.387Z,43.50
2019-03-22T07:31:20.606Z,43.35
2019-03-22T07:33:47.916Z,42.20
2019-03-22T07:36:15.184Z,42.78
2019-03-22T07:38:42.457Z,42.33
2019-03-22T07:41:09.784Z,42.33
2019-03-22T07:43:36.997Z,40.20
2019-03-22T07:46:04.204Z,43.35
2019-03-22T07:48:31.406Z,45.43
2019-03-22T07:50:58.726Z,53.52
2019-03-22T07:53:25.816Z,50.40
2019-03-22T07:55:53.108Z,62.35
2019-03-22T07:58:20.361Z,53.87
2019-03-22T08:00:47.667Z,64.60
2019-03-22T08:03:14.959Z,62.25
2019-03-22T08:05:51.035Z,60.50
2019-03-22T08:08:11.502Z,53.13
2019-03-22T08:10:38.706Z,56.13
2019-03-22T08:13:06.027Z,51.23
2019-03-22T08:15:33.384Z,46.28
2019-03-22T08:18:00.633Z,43.83
2019-03-22T08:20:28.582Z,44.83
2019-03-22T08:22:56.242Z,40.35
2019-03-22T08:25:23.428Z,41.25
2019-03-22T08:27:50.722Z,45.28
2019-03-22T08:30:18.024Z,48.52
2019-03-22T08:32:45.334Z,47.95
2019-03-22T08:35:12.631Z,47.53
2019-03-22T08:37:51.788Z,48.48
2019-03-22T08:40:09.077Z,49.48
2019-03-22T08:42:36.397Z,46.02
2019-03-22T08:45:04.060Z,41.92
2019-03-22T08:47:34.258Z,40.60
2019-03-22T08:50:00.590Z,43.70
2019-03-22T08:52:27.704Z,41.18
2019-03-22T08:54:54.867Z,41.23
2019-03-22T08:57:24.864Z,41.20
2019-03-22T08:59:51.509Z,43.23
2019-03-22T09:02:18.898Z,44.05
2019-03-22T09:04:46.013Z,47.03
2019-03-22T09:07:13.355Z,47.00
2019-03-22T09:09:41.871Z,46.70
2019-03-22T09:12:09.377Z,45.48
2019-03-22T09:14:36.651Z,49.75
2019-03-22T09:17:03.946Z,48.60
2019-03-22T09:19:31.259Z,44.65
2019-03-22T09:21:59.741Z,47.15
2019-03-22T09:24:38.613Z,43.28
2019-03-22T09:26:56.309Z,46.70
2019-03-22T09:29:23.568Z,46.63
2019-03-22T09:31:53.588Z,45.28
2019-03-22T09:34:32.926Z,43.80
2019-03-22T09:36:48.959Z,44.60
2019-03-22T09:39:16.332Z,43.78
2019-03-22T09:41:43.505Z,44.03
2019-03-22T09:44:10.855Z,43.48
2019-03-22T09:46:38.192Z,42.30
2019-03-22T09:49:05.524Z,45.75
2019-03-22T09:51:32.855Z,43.42
2019-03-22T09:54:00.139Z,41.80
2019-03-22T09:56:27.454Z,42.98
2019-03-22T09:58:54.734Z,40.52
2019-03-22T10:01:24.007Z,40.45
2019-03-22T10:03:51.081Z,41.37
2019-03-22T10:06:18.307Z,38.88
2019-03-22T10:08:46.364Z,35.55
2019-03-22T10:11:13.714Z,35.35
2019-03-22T10:13:41.026Z,34.35
2019-03-22T10:16:08.365Z,33.35
2019-03-22T10:18:36.980Z,31.20
2019-03-22T10:21:04.497Z,31.42
2019-03-22T10:23:31.848Z,27.77
2019-03-22T10:25:59.072Z,29.75
2019-03-22T10:28:26.370Z,27.32
2019-03-22T10:30:53.697Z,28.70
2019-03-22T10:33:22.909Z,28.02
2019-03-22T10:35:50.305Z,25.77
2019-03-22T10:38:30.692Z,23.73
2019-03-22T10:40:47.294Z,23.07
2019-03-22T10:43:14.530Z,23.25
2019-03-22T10:45:41.796Z,21.00
2019-03-22T10:48:09.119Z,20.37
2019-03-22T10:50:36.462Z,21.35
2019-03-22T10:53:03.764Z,19.62
2019-03-22T10:55:31.007Z,21.35
2019-03-22T10:57:58.323Z,19.52
2019-03-22T11:00:25.634Z,21.23
2019-03-22T11:02:52.934Z,19.00
2019-03-22T11:05:20.233Z,13.50
2019-03-22T11:07:47.546Z,14.75
2019-03-22T11:10:15.076Z,11.45
2019-03-22T11:12:42.449Z,10.63
2019-03-22T11:15:10.346Z,10.50
2019-03-22T11:17:37.669Z,11.53
2019-03-22T11:20:06.842Z,11.03
2019-03-22T11:22:34.144Z,14.28
2019-03-22T11:25:01.522Z,9.70
2019-03-22T11:27:28.815Z,9.25
2019-03-22T11:29:56.148Z,8.63
2019-03-22T11:32:23.487Z,9.85
2019-03-22T11:34:50.702Z,10.70
2019-03-22T11:37:18.035Z,9.58
2019-03-22T11:39:45.259Z,10.75
2019-03-22T11:42:12.569Z,11.18
2019-03-22T11:44:39.789Z,10.23
2019-03-22T11:47:07.088Z,10.32
2019-03-22T11:49:34.412Z,8.93
2019-03-22T11:52:01.723Z,8.93
2019-03-22T11:54:29.048Z,9.08
2019-03-22T11:56:56.271Z,8.55
2019-03-22T11:59:23.660Z,7.67
2019-03-22T12:01:50.942Z,7.75
2019-03-22T12:04:18.283Z,7.87
2019-03-22T12:06:45.598Z,7.75
2019-03-22T12:09:12.920Z,7.97
2019-03-22T12:11:42.085Z,8.25
2019-03-22T12:14:09.454Z,7.80
2019-03-22T12:16:36.920Z,7.58
2019-03-22T12:19:04.339Z,6.92
2019-03-22T12:21:51.264Z,5.40
2019-03-22T12:24:18.791Z,5.17
2019-03-22T12:26:46.219Z,6.47
2019-03-22T12:29:13.555Z,4.50
2019-03-22T12:31:40.860Z,4.37
2019-03-22T12:34:08.189Z,4.62
2019-03-22T12:36:35.404Z,5.45
2019-03-22T12:39:04.810Z,4.15
2019-03-22T12:41:32.101Z,4.90
2019-03-22T12:43:59.335Z,4.33
2019-03-22T12:46:26.682Z,4.78
2019-03-22T12:48:53.984Z,4.67
2019-03-22T12:51:21.198Z,4.80
2019-03-22T12:53:48.509Z,4.20
2019-03-22T12:56:15.864Z,4.40
2019-03-22T12:58:43.106Z,4.87
2019-03-22T13:01:10.426Z,4.60
2019-03-22T13:03:37.835Z,4.15
2019-03-22T13:06:05.179Z,5.47
2019-03-22T13:08:33.850Z,5.78
2019-03-22T13:11:01.285Z,5.85
2019-03-22T13:13:28.510Z,4.97
2019-03-22T13:15:55.866Z,5.40
2019-03-22T13:18:23.037Z,6.85
2019-03-22T13:20:51.210Z,6.60
2019-03-22T13:23:18.393Z,5.30
2019-03-22T13:25:45.723Z,5.65
2019-03-22T13:28:12.935Z,6.10
2019-03-22T13:30:40.262Z,5.65
2019-03-22T13:33:07.599Z,5.85
2019-03-22T13:35:34.926Z,6.83
2019-03-22T13:38:05.041Z,7.05
2019-03-22T13:40:32.404Z,7.75
2019-03-22T13:42:59.599Z,7.25
2019-03-22T13:45:28.027Z,6.95
2019-03-22T13:47:55.370Z,5.85
2019-03-22T13:50:22.926Z,5.92
2019-03-22T13:52:50.314Z,6.15
2019-03-22T13:55:17.935Z,6.78
2019-03-22T13:57:45.260Z,5.35
2019-03-22T14:00:12.711Z,7.10
2019-03-22T14:02:40.031Z,6.20
2019-03-22T14:05:07.769Z,6.42
2019-03-22T14:07:35.224Z,5.47
2019-03-22T14:10:03.242Z,5.00
2019-03-22T14:12:36.955Z,6.17
2019-03-22T14:14:59.671Z,6.10
2019-03-22T14:17:26.990Z,5.20
2019-03-22T14:19:54.307Z,6.10
2019-03-22T14:22:21.607Z,4.80
2019-03-22T14:24:49.246Z,5.08
2019-03-22T14:27:16.563Z,6.37
2019-03-22T14:29:43.872Z,6.12
2019-03-22T14:32:11.202Z,5.83
2019-03-22T14:34:38.412Z,5.33
2019-03-22T14:37:05.743Z,5.83
2019-03-22T14:39:33.094Z,6.03
2019-03-22T14:42:00.724Z,5.95
2019-03-22T14:44:28.365Z,5.33
2019-03-22T14:46:55.586Z,5.35
2019-03-22T14:49:22.795Z,6.35
2019-03-22T14:51:50.956Z,5.40
2019-03-22T14:54:18.318Z,5.72
2019-03-22T14:56:45.560Z,5.22
2019-03-22T14:59:12.776Z,4.78
2019-03-22T15:01:40.007Z,5.20
2019-03-22T15:04:07.317Z,5.78
2019-03-22T15:06:34.648Z,6.37
2019-03-22T15:09:01.945Z,5.67
2019-03-22T15:11:29.262Z,6.03
2019-03-22T15:14:01.486Z,5.00
2019-03-22T15:16:54.474Z,5.53
2019-03-22T15:19:39.098Z,4.87
2019-03-22T15:22:17.433Z,5.20
2019-03-22T15:25:05.664Z,4.10
2019-03-22T15:27:52.533Z,4.40
2019-03-22T15:30:38.086Z,5.10
2019-03-22T15:33:34.315Z,5.10
2019-03-22T15:36:25.098Z,5.03
2019-03-22T15:39:10.563Z,5.00
2019-03-22T15:41:37.754Z,4.12
2019-03-22T15:44:05.132Z,4.40
2019-03-22T15:46:32.460Z,5.03
2019-03-22T15:48:59.684Z,4.75
2019-03-22T15:51:26.974Z,4.72
2019-03-22T15:53:54.186Z,4.78
2019-03-22T15:56:21.539Z,5.45
2019-03-22T15:58:48.842Z,4.92
2019-03-22T16:01:15.942Z,4.12
2019-03-22T16:03:44.469Z,4.47
2019-03-22T16:06:12.184Z,4.53
2019-03-22T16:08:39.392Z,6.45
2019-03-22T16:11:06.696Z,9.23
2019-03-22T16:13:34.600Z,11.68
2019-03-22T16:16:02.022Z,10.98
2019-03-22T16:18:29.503Z,11.08
2019-03-22T16:21:00.012Z,11.40
2019-03-22T16:23:25.951Z,11.80
2019-03-22T16:25:53.154Z,12.75
2019-03-22T16:28:20.372Z,12.43
2019-03-22T16:30:47.677Z,12.05
2019-03-22T16:33:14.898Z,13.55
2019-03-22T16:35:42.209Z,13.18
2019-03-22T16:38:09.323Z,13.75
2019-03-22T16:40:36.633Z,13.48
2019-03-22T16:43:03.961Z,14.68
2019-03-22T16:45:38.921Z,15.32
2019-03-22T16:48:06.474Z,13.50
2019-03-22T16:50:33.770Z,14.45
2019-03-22T16:53:01.097Z,14.03
2019-03-22T16:55:28.402Z,14.15
2019-03-22T16:57:55.868Z,14.53
2019-03-22T17:00:23.186Z,14.33
2019-03-22T17:02:50.583Z,15.95
2019-03-22T17:05:20.330Z,16.20
2019-03-22T17:07:48.127Z,15.08
2019-03-22T17:10:15.444Z,14.60
2019-03-22T17:12:43.089Z,15.40
2019-03-22T17:15:10.443Z,14.85
2019-03-22T17:17:37.968Z,14.93
2019-03-22T17:20:06.855Z,14.83
2019-03-22T17:22:34.303Z,15.23
2019-03-22T17:25:01.619Z,15.20
2019-03-22T17:27:28.921Z,14.93
2019-03-22T17:29:56.213Z,14.58
2019-03-22T17:32:23.434Z,14.70
2019-03-22T17:34:51.879Z,14.63
2019-03-22T17:37:19.369Z,14.10
2019-03-22T17:39:46.741Z,14.58
2019-03-22T17:42:14.059Z,14.10
2019-03-22T17:44:41.404Z,14.50
2019-03-22T17:47:08.705Z,14.83
2019-03-22T17:49:36.031Z,15.15
2019-03-22T17:52:03.362Z,13.18
2019-03-22T17:54:30.671Z,13.95
2019-03-22T17:56:58.027Z,12.65
2019-03-22T17:59:25.243Z,13.32
2019-03-22T18:01:52.647Z,11.63
2019-03-22T18:04:24.052Z,10.20
2019-03-22T18:06:49.173Z,10.65
2019-03-22T18:09:16.487Z,11.18
2019-03-22T18:11:43.787Z,11.50
2019-03-22T18:14:11.131Z,10.85
2019-03-22T18:16:38.444Z,10.72
2019-03-22T18:19:05.734Z,10.75
2019-03-22T18:21:33.058Z,10.75
2019-03-22T18:24:00.385Z,9.90
2019-03-22T18:26:27.512Z,9.83
2019-03-22T18:28:54.712Z,9.53
2019-03-22T18:31:21.918Z,9.40
2019-03-22T18:33:49.231Z,9.10
2019-03-22T18:36:16.548Z,8.75
2019-03-22T18:38:44.099Z,9.75
2019-03-22T18:41:11.531Z,10.18
2019-03-22T18:43:38.866Z,10.32
2019-03-22T18:46:06.145Z,10.65
2019-03-22T18:48:33.596Z,9.60
2019-03-22T18:51:00.912Z,9.35
2019-03-22T18:53:28.127Z,10.35
2019-03-22T18:55:55.428Z,10.80
2019-03-22T18:58:23.769Z,10.50
2019-03-22T19:00:51.163Z,9.68
2019-03-22T19:03:18.386Z,9.55
2019-03-22T19:05:45.757Z,10.82
2019-03-22T19:08:13.090Z,10.45
2019-03-22T19:10:40.305Z,10.80
2019-03-22T19:13:07.877Z,10.20
2019-03-22T19:15:35.239Z,9.73
2019-03-22T19:18:02.449Z,10.38
2019-03-22T19:20:29.778Z,10.50
2019-03-22T19:22:57.109Z,10.50
2019-03-22T19:25:24.413Z,9.98
2019-03-22T19:27:51.750Z,9.65
2019-03-22T19:30:19.066Z,10.45
2019-03-22T19:32:46.373Z,11.43
2019-03-22T19:35:13.826Z,10.30
2019-03-22T19:37:41.140Z,9.75
2019-03-22T19:40:08.797Z,10.75
2019-03-22T19:42:36.113Z,11.03
2019-03-22T19:45:04.192Z,11.73
2019-03-22T19:47:31.413Z,16.93
2019-03-22T19:49:58.725Z,12.20
2019-03-22T19:52:26.113Z,13.53
2019-03-22T19:54:53.313Z,13.58
2019-03-22T19:57:20.555Z,14.00
2019-03-22T19:59:47.856Z,13.15
2019-03-22T20:02:15.062Z,11.28
2019-03-22T20:04:42.296Z,11.05
2019-03-22T20:07:09.618Z,10.13
2019-03-22T20:09:36.952Z,8.95
2019-03-22T20:12:04.254Z,8.63
2019-03-22T20:14:31.504Z,9.85
2019-03-22T20:16:58.731Z,8.98
2019-03-22T20:19:25.982Z,8.95
2019-03-22T20:21:53.191Z,9.30
2019-03-22T20:24:20.521Z,9.55
2019-03-22T20:26:47.821Z,8.43
2019-03-22T20:29:15.261Z,9.00
2019-03-22T20:31:42.550Z,9.35
2019-03-22T20:34:09.875Z,8.05
2019-03-22T20:36:37.065Z,9.73
2019-03-22T20:39:05.978Z,9.13
2019-03-22T20:41:33.584Z,8.48
2019-03-22T20:44:00.913Z,8.75
2019-03-22T20:46:28.213Z,9.20
2019-03-22T20:48:55.425Z,11.85
2019-03-22T20:51:22.735Z,10.23
2019-03-22T20:53:50.014Z,12.05
2019-03-22T20:56:17.245Z,12.95
2019-03-22T20:58:44.590Z,13.15
2019-03-22T21:01:11.807Z,12.73
2019-03-22T21:03:39.133Z,12.53
2019-03-22T21:06:06.356Z,12.78
2019-03-22T21:08:33.709Z,12.90
2019-03-22T21:11:00.994Z,13.68
2019-03-22T21:13:28.323Z,13.38
2019-03-22T21:15:55.685Z,14.00
2019-03-22T21:18:22.891Z,13.60
2019-03-22T21:20:50.170Z,14.25
2019-03-22T21:23:17.383Z,14.07
2019-03-22T21:25:44.718Z,13.93
2019-03-22T21:28:11.938Z,13.72
2019-03-22T21:30:39.061Z,14.25
2019-03-22T21:33:06.360Z,13.38
2019-03-22T21:35:37.602Z,13.80
2019-03-22T21:38:10.726Z,14.55
2019-03-22T21:40:31.945Z,16.42
2019-03-22T21:42:59.255Z,14.13
2019-03-22T21:45:26.471Z,12.63
2019-03-22T21:47:53.677Z,12.10
2019-03-22T21:50:21.330Z,12.90
2019-03-22T21:52:48.480Z,13.00
2019-03-22T21:55:15.812Z,12.23
2019-03-22T21:57:43.031Z,12.58
2019-03-22T22:00:10.674Z,13.95
2019-03-22T22:02:38.020Z,15.70
2019-03-22T22:05:06.362Z,15.98
2019-03-22T22:07:33.662Z,14.05
2019-03-22T22:10:00.984Z,14.80
2019-03-22T22:12:29.873Z,15.93
2019-03-22T22:14:57.219Z,14.83
2019-03-22T22:17:24.516Z,14.75
2019-03-22T22:19:51.759Z,13.90
2019-03-22T22:22:19.077Z,14.25
2019-03-22T22:24:46.401Z,16.52
2019-03-22T22:27:14.346Z,17.45
2019-03-22T22:29:41.700Z,15.48
2019-03-22T22:32:09.016Z,17.40
2019-03-22T22:34:36.269Z,17.10
2019-03-22T22:37:03.595Z,16.07
2019-03-22T22:39:30.940Z,17.48
2019-03-22T22:41:58.168Z,15.72
2019-03-22T22:44:25.431Z,12.78
2019-03-22T22:46:52.761Z,13.32
2019-03-22T22:49:20.094Z,11.65
2019-03-22T22:51:47.410Z,11.55
2019-03-22T22:54:14.710Z,11.20
2019-03-22T22:56:41.959Z,10.60
2019-03-22T22:59:09.277Z,10.78
2019-03-22T23:01:36.490Z,10.78
2019-03-22T23:04:03.808Z,13.00
2019-03-22T23:06:31.345Z,11.57
2019-03-22T23:08:58.568Z,11.40
2019-03-22T23:11:26.100Z,11.40
2019-03-22T23:13:53.302Z,11.08
2019-03-22T23:16:20.531Z,11.18
2019-03-22T23:18:47.840Z,12.00
2019-03-22T23:21:15.175Z,11.60
2019-03-22T23:23:42.437Z,11.60
2019-03-22T23:26:09.773Z,11.25
2019-03-22T23:28:37.103Z,11.93
2019-03-22T23:31:04.335Z,12.15
2019-03-22T23:33:31.643Z,13.60
2019-03-22T23:35:58.974Z,12.90
2019-03-22T23:38:26.306Z,12.20
2019-03-22T23:40:53.611Z,11.88
2019-03-22T23:43:20.734Z,12.53
2019-03-22T23:45:47.965Z,12.28
2019-03-22T23:48:15.167Z,12.47
2019-03-22T23:50:42.391Z,13.45
2019-03-22T23:53:09.604Z,13.38
2019-03-22T23:55:36.935Z,11.85
2019-03-22T23:58:04.529Z,14.55
